sensor_id;sensor_type;location;lat;lon;timestamp;temperature;humidity
16485;DHT22;8353;47.856;12.344;2022-11-15T00:02:18;7.50;99.90
16485;DHT22;8353;47.856;12.344;2022-11-15T00:04:49;7.50;99.90
16485;DHT22;8353;47.856;12.344;2022-11-15T00:07:19;7.40;99.90
16485;DHT22;8353;47.856;12.344;2022-11-15T00:09:51;7.30;99.90
16485;DHT22;8353;47.856;12.344;2022-11-15T00:12:21;7.30;99.90
16485;DHT22;8353;47.856;12.344;2022-11-15T00:14:52;7.30;99.90
16485;DHT22;8353;47.856;12.344;2022-11-15T00:17:22;7.30;99.90
16485;DHT22;8353;47.856;12.344;2022-11-15T00:19:52;7.30;99.90
16485;DHT22;8353;47.856;12.344;2022-11-15T00:22:23;7.10;99.90
16485;DHT22;8353;47.856;12.344;2022-11-15T00:24:55;7.20;99.90
16485;DHT22;8353;47.856;12.344;2022-11-15T00:27:26;7.20;99.90
16485;DHT22;8353;47.856;12.344;2022-11-15T00:29:57;7.30;99.90
16485;DHT22;8353;47.856;12.344;2022-11-15T00:32:31;7.40;99.90
16485;DHT22;8353;47.856;12.344;2022-11-15T00:35:01;7.30;99.90
16485;DHT22;8353;47.856;12.344;2022-11-15T00:37:32;7.40;99.90
16485;DHT22;8353;47.856;12.344;2022-11-15T00:40:05;7.30;99.90
16485;DHT22;8353;47.856;12.344;2022-11-15T00:42:35;7.40;99.90
16485;DHT22;8353;47.856;12.344;2022-11-15T00:45:07;7.30;99.90
16485;DHT22;8353;47.856;12.344;2022-11-15T00:47:38;7.20;99.90
16485;DHT22;8353;47.856;12.344;2022-11-15T00:50:08;7.30;99.90
16485;DHT22;8353;47.856;12.344;2022-11-15T00:52:38;7.20;99.90
16485;DHT22;8353;47.856;12.344;2022-11-15T00:55:13;7.10;99.90
16485;DHT22;8353;47.856;12.344;2022-11-15T00:57:45;7.20;99.90
16485;DHT22;8353;47.856;12.344;2022-11-15T01:00:16;7.20;99.90
16485;DHT22;8353;47.856;12.344;2022-11-15T01:02:47;7.00;99.90
16485;DHT22;8353;47.856;12.344;2022-11-15T01:05:17;7.00;99.90
16485;DHT22;8353;47.856;12.344;2022-11-15T01:07:51;7.00;99.90
16485;DHT22;8353;47.856;12.344;2022-11-15T01:10:23;7.10;99.90
16485;DHT22;8353;47.856;12.344;2022-11-15T01:12:55;7.00;99.90
16485;DHT22;8353;47.856;12.344;2022-11-15T01:15:25;6.90;99.90
16485;DHT22;8353;47.856;12.344;2022-11-15T01:17:56;6.70;99.90
16485;DHT22;8353;47.856;12.344;2022-11-15T01:20:26;6.80;99.90
16485;DHT22;8353;47.856;12.344;2022-11-15T01:22:57;6.90;99.90
16485;DHT22;8353;47.856;12.344;2022-11-15T01:25:29;6.80;99.90
16485;DHT22;8353;47.856;12.344;2022-11-15T01:28:00;6.90;99.90
16485;DHT22;8353;47.856;12.344;2022-11-15T01:30:30;6.90;99.90
16485;DHT22;8353;47.856;12.344;2022-11-15T01:33:00;6.90;99.90
16485;DHT22;8353;47.856;12.344;2022-11-15T01:35:31;6.90;99.90
16485;DHT22;8353;47.856;12.344;2022-11-15T01:38:02;7.00;99.90
16485;DHT22;8353;47.856;12.344;2022-11-15T01:40:33;6.90;99.90
16485;DHT22;8353;47.856;12.344;2022-11-15T01:43:21;6.80;99.90
16485;DHT22;8353;47.856;12.344;2022-11-15T01:45:55;6.60;99.90
16485;DHT22;8353;47.856;12.344;2022-11-15T01:48:33;6.70;99.90
16485;DHT22;8353;47.856;12.344;2022-11-15T01:51:07;6.40;99.90
16485;DHT22;8353;47.856;12.344;2022-11-15T01:53:41;6.60;99.90
16485;DHT22;8353;47.856;12.344;2022-11-15T01:56:18;6.70;99.90
16485;DHT22;8353;47.856;12.344;2022-11-15T01:58:51;6.60;99.90
16485;DHT22;8353;47.856;12.344;2022-11-15T02:01:24;6.70;99.90
16485;DHT22;8353;47.856;12.344;2022-11-15T02:03:59;6.70;99.90
16485;DHT22;8353;47.856;12.344;2022-11-15T02:06:30;6.80;99.90
16485;DHT22;8353;47.856;12.344;2022-11-15T02:09:06;6.80;99.90
16485;DHT22;8353;47.856;12.344;2022-11-15T02:11:54;6.70;99.90
16485;DHT22;8353;47.856;12.344;2022-11-15T02:14:26;6.70;99.90
16485;DHT22;8353;47.856;12.344;2022-11-15T02:17:02;6.60;99.90
16485;DHT22;8353;47.856;12.344;2022-11-15T02:22:57;6.60;99.90
16485;DHT22;8353;47.856;12.344;2022-11-15T02:25:39;6.60;99.90
16485;DHT22;8353;47.856;12.344;2022-11-15T02:28:44;6.40;99.90
16485;DHT22;8353;47.856;12.344;2022-11-15T02:31:21;6.50;99.90
16485;DHT22;8353;47.856;12.344;2022-11-15T02:34:00;6.40;99.90
16485;DHT22;8353;47.856;12.344;2022-11-15T02:36:40;6.40;99.90
16485;DHT22;8353;47.856;12.344;2022-11-15T02:39:21;6.40;99.90
16485;DHT22;8353;47.856;12.344;2022-11-15T02:41:55;6.40;99.90
16485;DHT22;8353;47.856;12.344;2022-11-15T02:44:32;6.40;99.90
16485;DHT22;8353;47.856;12.344;2022-11-15T02:47:06;6.60;99.90
16485;DHT22;8353;47.856;12.344;2022-11-15T02:49:46;6.60;99.90
16485;DHT22;8353;47.856;12.344;2022-11-15T02:52:17;6.50;99.90
16485;DHT22;8353;47.856;12.344;2022-11-15T02:54:54;6.60;99.90
16485;DHT22;8353;47.856;12.344;2022-11-15T02:57:35;6.50;99.90
16485;DHT22;8353;47.856;12.344;2022-11-15T03:00:12;6.40;99.90
16485;DHT22;8353;47.856;12.344;2022-11-15T03:02:57;6.40;99.90
16485;DHT22;8353;47.856;12.344;2022-11-15T03:05:34;6.40;99.90
16485;DHT22;8353;47.856;12.344;2022-11-15T03:08:09;6.20;99.90
16485;DHT22;8353;47.856;12.344;2022-11-15T03:10:45;6.30;99.90
16485;DHT22;8353;47.856;12.344;2022-11-15T03:13:22;6.30;99.90
16485;DHT22;8353;47.856;12.344;2022-11-15T03:16:01;6.30;99.90
16485;DHT22;8353;47.856;12.344;2022-11-15T03:18:36;6.30;99.90
16485;DHT22;8353;47.856;12.344;2022-11-15T03:21:09;6.20;99.90
16485;DHT22;8353;47.856;12.344;2022-11-15T03:23:44;6.30;99.90
16485;DHT22;8353;47.856;12.344;2022-11-15T03:26:18;6.20;99.90
16485;DHT22;8353;47.856;12.344;2022-11-15T03:28:52;6.20;99.90
16485;DHT22;8353;47.856;12.344;2022-11-15T03:31:26;6.30;99.90
16485;DHT22;8353;47.856;12.344;2022-11-15T03:34:25;6.40;99.90
16485;DHT22;8353;47.856;12.344;2022-11-15T03:36:56;6.40;99.90
16485;DHT22;8353;47.856;12.344;2022-11-15T03:39:27;6.30;99.90
16485;DHT22;8353;47.856;12.344;2022-11-15T03:42:06;6.30;99.90
16485;DHT22;8353;47.856;12.344;2022-11-15T03:44:42;6.30;99.90
16485;DHT22;8353;47.856;12.344;2022-11-15T03:47:20;6.40;99.90
16485;DHT22;8353;47.856;12.344;2022-11-15T03:49:57;6.40;99.90
16485;DHT22;8353;47.856;12.344;2022-11-15T03:52:32;6.20;99.90
16485;DHT22;8353;47.856;12.344;2022-11-15T03:55:05;6.10;99.90
16485;DHT22;8353;47.856;12.344;2022-11-15T03:57:40;6.10;99.90
16485;DHT22;8353;47.856;12.344;2022-11-15T04:00:14;6.10;99.90
16485;DHT22;8353;47.856;12.344;2022-11-15T04:02:45;6.10;99.90
16485;DHT22;8353;47.856;12.344;2022-11-15T04:05:17;6.10;99.90
16485;DHT22;8353;47.856;12.344;2022-11-15T04:07:47;6.20;99.90
16485;DHT22;8353;47.856;12.344;2022-11-15T04:10:18;6.20;99.90
16485;DHT22;8353;47.856;12.344;2022-11-15T04:12:48;6.10;99.90
16485;DHT22;8353;47.856;12.344;2022-11-15T04:15:22;6.20;99.90
16485;DHT22;8353;47.856;12.344;2022-11-15T04:17:54;6.30;99.90
16485;DHT22;8353;47.856;12.344;2022-11-15T04:20:28;6.30;99.90
16485;DHT22;8353;47.856;12.344;2022-11-15T04:23:17;6.30;99.90
16485;DHT22;8353;47.856;12.344;2022-11-15T04:26:08;6.30;99.90
16485;DHT22;8353;47.856;12.344;2022-11-15T04:28:39;6.30;99.90
16485;DHT22;8353;47.856;12.344;2022-11-15T04:31:30;6.20;99.90
16485;DHT22;8353;47.856;12.344;2022-11-15T04:34:00;6.20;99.90
16485;DHT22;8353;47.856;12.344;2022-11-15T04:36:32;6.10;99.90
16485;DHT22;8353;47.856;12.344;2022-11-15T04:39:21;6.10;99.90
16485;DHT22;8353;47.856;12.344;2022-11-15T04:41:52;6.20;99.90
16485;DHT22;8353;47.856;12.344;2022-11-15T04:44:23;6.10;99.90
16485;DHT22;8353;47.856;12.344;2022-11-15T04:46:53;6.10;99.90
16485;DHT22;8353;47.856;12.344;2022-11-15T04:57:01;6.10;99.90
16485;DHT22;8353;47.856;12.344;2022-11-15T04:59:32;6.10;99.90
16485;DHT22;8353;47.856;12.344;2022-11-15T05:02:03;6.10;99.90
16485;DHT22;8353;47.856;12.344;2022-11-15T05:04:32;6.20;99.90
16485;DHT22;8353;47.856;12.344;2022-11-15T05:07:03;6.20;99.90
16485;DHT22;8353;47.856;12.344;2022-11-15T05:09:34;6.10;99.90
16485;DHT22;8353;47.856;12.344;2022-11-15T05:12:06;6.10;99.90
16485;DHT22;8353;47.856;12.344;2022-11-15T05:14:36;6.10;99.90
16485;DHT22;8353;47.856;12.344;2022-11-15T05:17:06;6.10;99.90
16485;DHT22;8353;47.856;12.344;2022-11-15T05:19:37;6.10;99.90
16485;DHT22;8353;47.856;12.344;2022-11-15T05:22:08;6.10;99.90
16485;DHT22;8353;47.856;12.344;2022-11-15T05:24:38;6.10;99.90
16485;DHT22;8353;47.856;12.344;2022-11-15T05:27:10;6.10;99.90
16485;DHT22;8353;47.856;12.344;2022-11-15T05:29:40;6.10;99.90
16485;DHT22;8353;47.856;12.344;2022-11-15T05:32:12;6.00;99.90
16485;DHT22;8353;47.856;12.344;2022-11-15T05:34:43;6.00;99.90
16485;DHT22;8353;47.856;12.344;2022-11-15T05:37:13;5.70;99.90
16485;DHT22;8353;47.856;12.344;2022-11-15T05:39:44;5.90;99.90
16485;DHT22;8353;47.856;12.344;2022-11-15T05:42:16;6.00;99.90
16485;DHT22;8353;47.856;12.344;2022-11-15T05:44:48;5.90;99.90
16485;DHT22;8353;47.856;12.344;2022-11-15T05:47:22;6.00;99.90
16485;DHT22;8353;47.856;12.344;2022-11-15T05:49:55;6.10;99.90
16485;DHT22;8353;47.856;12.344;2022-11-15T05:52:29;6.10;99.90
16485;DHT22;8353;47.856;12.344;2022-11-15T05:55:01;6.10;99.90
16485;DHT22;8353;47.856;12.344;2022-11-15T05:57:34;6.10;99.90
16485;DHT22;8353;47.856;12.344;2022-11-15T06:00:07;6.10;99.90
16485;DHT22;8353;47.856;12.344;2022-11-15T06:02:38;6.00;99.90
16485;DHT22;8353;47.856;12.344;2022-11-15T06:05:09;6.00;99.90
16485;DHT22;8353;47.856;12.344;2022-11-15T06:07:40;5.80;99.90
16485;DHT22;8353;47.856;12.344;2022-11-15T06:10:11;5.90;99.90
16485;DHT22;8353;47.856;12.344;2022-11-15T06:12:43;5.80;99.90
16485;DHT22;8353;47.856;12.344;2022-11-15T06:15:14;5.80;99.90
16485;DHT22;8353;47.856;12.344;2022-11-15T06:17:45;5.80;99.90
16485;DHT22;8353;47.856;12.344;2022-11-15T06:20:16;5.80;99.90
16485;DHT22;8353;47.856;12.344;2022-11-15T06:22:46;5.80;99.90
16485;DHT22;8353;47.856;12.344;2022-11-15T06:25:17;5.80;99.90
16485;DHT22;8353;47.856;12.344;2022-11-15T06:27:52;5.80;99.90
16485;DHT22;8353;47.856;12.344;2022-11-15T06:30:24;5.80;99.90
16485;DHT22;8353;47.856;12.344;2022-11-15T06:32:59;5.90;99.90
16485;DHT22;8353;47.856;12.344;2022-11-15T06:35:33;5.90;99.90
16485;DHT22;8353;47.856;12.344;2022-11-15T06:38:05;5.90;99.90
16485;DHT22;8353;47.856;12.344;2022-11-15T06:40:37;5.80;99.90
16485;DHT22;8353;47.856;12.344;2022-11-15T06:43:09;5.80;99.90
16485;DHT22;8353;47.856;12.344;2022-11-15T06:45:40;5.90;99.90
16485;DHT22;8353;47.856;12.344;2022-11-15T06:48:10;5.90;99.90
16485;DHT22;8353;47.856;12.344;2022-11-15T06:50:41;5.90;99.90
16485;DHT22;8353;47.856;12.344;2022-11-15T06:53:13;5.90;99.90
16485;DHT22;8353;47.856;12.344;2022-11-15T06:55:43;5.90;99.90
16485;DHT22;8353;47.856;12.344;2022-11-15T06:58:16;5.90;99.90
16485;DHT22;8353;47.856;12.344;2022-11-15T07:00:46;5.90;99.90
16485;DHT22;8353;47.856;12.344;2022-11-15T07:03:16;6.00;99.90
16485;DHT22;8353;47.856;12.344;2022-11-15T07:05:52;6.10;99.90
16485;DHT22;8353;47.856;12.344;2022-11-15T07:08:26;6.10;99.90
16485;DHT22;8353;47.856;12.344;2022-11-15T07:10:58;6.20;99.90
16485;DHT22;8353;47.856;12.344;2022-11-15T07:13:32;6.20;99.90
16485;DHT22;8353;47.856;12.344;2022-11-15T07:16:05;6.30;99.90
16485;DHT22;8353;47.856;12.344;2022-11-15T07:18:37;6.30;99.90
16485;DHT22;8353;47.856;12.344;2022-11-15T07:21:10;6.20;99.90
16485;DHT22;8353;47.856;12.344;2022-11-15T07:23:40;6.40;99.90
16485;DHT22;8353;47.856;12.344;2022-11-15T07:26:14;6.50;99.90
16485;DHT22;8353;47.856;12.344;2022-11-15T07:28:46;6.60;99.90
16485;DHT22;8353;47.856;12.344;2022-11-15T07:31:17;6.70;99.90
16485;DHT22;8353;47.856;12.344;2022-11-15T07:33:47;6.80;99.90
16485;DHT22;8353;47.856;12.344;2022-11-15T07:36:17;6.80;99.90
16485;DHT22;8353;47.856;12.344;2022-11-15T07:38:48;6.80;99.90
16485;DHT22;8353;47.856;12.344;2022-11-15T07:41:19;7.00;99.90
16485;DHT22;8353;47.856;12.344;2022-11-15T07:43:52;7.10;99.90
16485;DHT22;8353;47.856;12.344;2022-11-15T07:46:23;7.30;99.90
16485;DHT22;8353;47.856;12.344;2022-11-15T07:48:54;7.40;99.90
16485;DHT22;8353;47.856;12.344;2022-11-15T07:51:24;7.60;99.90
16485;DHT22;8353;47.856;12.344;2022-11-15T07:53:55;7.70;99.90
16485;DHT22;8353;47.856;12.344;2022-11-15T07:56:26;7.80;99.90
16485;DHT22;8353;47.856;12.344;2022-11-15T07:58:58;8.00;99.90
16485;DHT22;8353;47.856;12.344;2022-11-15T08:01:30;8.10;99.90
16485;DHT22;8353;47.856;12.344;2022-11-15T08:04:00;8.30;99.90
16485;DHT22;8353;47.856;12.344;2022-11-15T08:06:31;8.30;99.90
16485;DHT22;8353;47.856;12.344;2022-11-15T08:09:01;8.50;99.90
16485;DHT22;8353;47.856;12.344;2022-11-15T08:11:32;8.80;99.90
16485;DHT22;8353;47.856;12.344;2022-11-15T08:14:03;9.00;99.90
16485;DHT22;8353;47.856;12.344;2022-11-15T08:16:34;9.00;99.90
16485;DHT22;8353;47.856;12.344;2022-11-15T08:19:05;9.10;99.90
16485;DHT22;8353;47.856;12.344;2022-11-15T08:21:37;9.30;99.90
16485;DHT22;8353;47.856;12.344;2022-11-15T08:24:09;9.30;99.90
16485;DHT22;8353;47.856;12.344;2022-11-15T08:26:40;9.40;99.90
16485;DHT22;8353;47.856;12.344;2022-11-15T08:29:12;9.70;99.90
16485;DHT22;8353;47.856;12.344;2022-11-15T08:31:43;9.80;99.90
16485;DHT22;8353;47.856;12.344;2022-11-15T08:34:13;10.30;99.90
16485;DHT22;8353;47.856;12.344;2022-11-15T08:36:43;10.50;99.90
16485;DHT22;8353;47.856;12.344;2022-11-15T08:39:14;10.60;99.90
16485;DHT22;8353;47.856;12.344;2022-11-15T08:41:44;10.70;99.90
16485;DHT22;8353;47.856;12.344;2022-11-15T08:44:16;10.50;99.90
16485;DHT22;8353;47.856;12.344;2022-11-15T08:46:46;10.60;99.90
16485;DHT22;8353;47.856;12.344;2022-11-15T08:49:17;10.50;99.90
16485;DHT22;8353;47.856;12.344;2022-11-15T08:51:48;10.20;99.90
16485;DHT22;8353;47.856;12.344;2022-11-15T08:54:19;10.30;99.90
16485;DHT22;8353;47.856;12.344;2022-11-15T08:56:49;10.90;99.90
16485;DHT22;8353;47.856;12.344;2022-11-15T08:59:21;11.20;99.90
16485;DHT22;8353;47.856;12.344;2022-11-15T09:01:52;11.40;99.90
16485;DHT22;8353;47.856;12.344;2022-11-15T09:04:22;11.30;99.90
16485;DHT22;8353;47.856;12.344;2022-11-15T09:06:53;11.30;99.90
16485;DHT22;8353;47.856;12.344;2022-11-15T09:09:24;11.40;99.90
16485;DHT22;8353;47.856;12.344;2022-11-15T09:11:54;11.70;99.90
16485;DHT22;8353;47.856;12.344;2022-11-15T09:14:26;11.80;99.90
16485;DHT22;8353;47.856;12.344;2022-11-15T09:16:57;12.20;99.90
16485;DHT22;8353;47.856;12.344;2022-11-15T09:19:28;12.10;99.90
16485;DHT22;8353;47.856;12.344;2022-11-15T09:21:58;12.10;99.90
16485;DHT22;8353;47.856;12.344;2022-11-15T09:24:28;12.20;99.90
16485;DHT22;8353;47.856;12.344;2022-11-15T09:26:59;12.40;99.90
16485;DHT22;8353;47.856;12.344;2022-11-15T09:29:31;12.50;99.90
16485;DHT22;8353;47.856;12.344;2022-11-15T09:32:01;12.50;99.90
16485;DHT22;8353;47.856;12.344;2022-11-15T09:34:31;12.60;99.90
16485;DHT22;8353;47.856;12.344;2022-11-15T09:37:02;12.90;99.90
16485;DHT22;8353;47.856;12.344;2022-11-15T09:39:33;13.00;99.90
16485;DHT22;8353;47.856;12.344;2022-11-15T09:42:17;12.80;99.90
16485;DHT22;8353;47.856;12.344;2022-11-15T09:44:59;12.50;99.90
16485;DHT22;8353;47.856;12.344;2022-11-15T09:47:58;12.50;99.90
16485;DHT22;8353;47.856;12.344;2022-11-15T09:50:34;12.80;99.90
16485;DHT22;8353;47.856;12.344;2022-11-15T09:53:11;13.10;99.90
16485;DHT22;8353;47.856;12.344;2022-11-15T09:55:49;13.30;99.90
16485;DHT22;8353;47.856;12.344;2022-11-15T09:58:26;13.30;99.90
16485;DHT22;8353;47.856;12.344;2022-11-15T10:01:04;13.40;99.90
16485;DHT22;8353;47.856;12.344;2022-11-15T10:03:37;13.50;99.90
16485;DHT22;8353;47.856;12.344;2022-11-15T10:06:18;13.30;99.90
16485;DHT22;8353;47.856;12.344;2022-11-15T10:08:56;13.40;99.90
16485;DHT22;8353;47.856;12.344;2022-11-15T10:11:30;13.00;99.90
16485;DHT22;8353;47.856;12.344;2022-11-15T10:14:02;13.00;99.90
16485;DHT22;8353;47.856;12.344;2022-11-15T10:19:35;13.00;99.90
16485;DHT22;8353;47.856;12.344;2022-11-15T10:22:30;13.30;99.90
16485;DHT22;8353;47.856;12.344;2022-11-15T10:25:19;13.70;99.90
16485;DHT22;8353;47.856;12.344;2022-11-15T10:27:54;13.70;99.90
16485;DHT22;8353;47.856;12.344;2022-11-15T10:30:31;13.70;99.90
16485;DHT22;8353;47.856;12.344;2022-11-15T10:33:27;13.80;99.90
16485;DHT22;8353;47.856;12.344;2022-11-15T10:40:03;14.10;99.90
16485;DHT22;8353;47.856;12.344;2022-11-15T10:43:03;14.00;99.90
16485;DHT22;8353;47.856;12.344;2022-11-15T10:45:34;14.20;99.90
16485;DHT22;8353;47.856;12.344;2022-11-15T10:48:25;14.30;99.90
16485;DHT22;8353;47.856;12.344;2022-11-15T10:50:56;14.20;99.90
16485;DHT22;8353;47.856;12.344;2022-11-15T10:53:30;14.30;99.90
16485;DHT22;8353;47.856;12.344;2022-11-15T11:11:14;14.50;99.90
16485;DHT22;8353;47.856;12.344;2022-11-15T11:21:41;14.80;99.90
16485;DHT22;8353;47.856;12.344;2022-11-15T11:36:01;14.90;99.90
16485;DHT22;8353;47.856;12.344;2022-11-15T11:38:58;14.90;99.90
16485;DHT22;8353;47.856;12.344;2022-11-15T11:41:53;15.20;99.90
16485;DHT22;8353;47.856;12.344;2022-11-15T11:44:49;15.50;99.90
16485;DHT22;8353;47.856;12.344;2022-11-15T11:47:39;15.50;99.90
16485;DHT22;8353;47.856;12.344;2022-11-15T11:50:14;15.50;99.90
16485;DHT22;8353;47.856;12.344;2022-11-15T11:52:56;15.30;99.90
16485;DHT22;8353;47.856;12.344;2022-11-15T11:55:31;15.30;99.90
16485;DHT22;8353;47.856;12.344;2022-11-15T11:58:06;15.10;99.90
16485;DHT22;8353;47.856;12.344;2022-11-15T12:00:43;15.10;99.90
16485;DHT22;8353;47.856;12.344;2022-11-15T12:03:28;15.20;99.90
16485;DHT22;8353;47.856;12.344;2022-11-15T12:06:01;15.30;99.90
16485;DHT22;8353;47.856;12.344;2022-11-15T12:08:43;15.30;99.90
16485;DHT22;8353;47.856;12.344;2022-11-15T12:11:20;15.40;99.90
16485;DHT22;8353;47.856;12.344;2022-11-15T12:13:58;15.40;99.90
16485;DHT22;8353;47.856;12.344;2022-11-15T12:16:30;15.50;99.90
16485;DHT22;8353;47.856;12.344;2022-11-15T12:19:03;15.70;99.90
16485;DHT22;8353;47.856;12.344;2022-11-15T12:21:39;15.60;99.90
16485;DHT22;8353;47.856;12.344;2022-11-15T12:24:16;15.50;99.90
16485;DHT22;8353;47.856;12.344;2022-11-15T12:26:51;15.50;99.90
16485;DHT22;8353;47.856;12.344;2022-11-15T12:29:28;15.60;99.90
16485;DHT22;8353;47.856;12.344;2022-11-15T12:32:01;15.80;99.90
16485;DHT22;8353;47.856;12.344;2022-11-15T12:34:40;16.00;99.90
16485;DHT22;8353;47.856;12.344;2022-11-15T12:40:34;15.80;99.90
16485;DHT22;8353;47.856;12.344;2022-11-15T12:43:35;15.90;99.90
16485;DHT22;8353;47.856;12.344;2022-11-15T12:46:13;16.00;99.90
16485;DHT22;8353;47.856;12.344;2022-11-15T12:48:53;16.00;99.90
16485;DHT22;8353;47.856;12.344;2022-11-15T12:54:58;16.40;99.90
16485;DHT22;8353;47.856;12.344;2022-11-15T12:57:35;16.50;99.90
16485;DHT22;8353;47.856;12.344;2022-11-15T13:03:23;16.50;99.90
16485;DHT22;8353;47.856;12.344;2022-11-15T13:06:01;16.40;99.90
16485;DHT22;8353;47.856;12.344;2022-11-15T13:08:44;16.40;99.90
16485;DHT22;8353;47.856;12.344;2022-11-15T13:11:45;16.30;99.90
16485;DHT22;8353;47.856;12.344;2022-11-15T13:17:34;16.50;99.90
16485;DHT22;8353;47.856;12.344;2022-11-15T13:20:23;16.50;99.90
16485;DHT22;8353;47.856;12.344;2022-11-15T13:23:01;16.60;99.90
16485;DHT22;8353;47.856;12.344;2022-11-15T13:25:56;16.60;99.90
16485;DHT22;8353;47.856;12.344;2022-11-15T13:28:32;16.60;99.90
16485;DHT22;8353;47.856;12.344;2022-11-15T13:31:26;16.40;99.90
16485;DHT22;8353;47.856;12.344;2022-11-15T13:34:01;16.50;99.90
16485;DHT22;8353;47.856;12.344;2022-11-15T13:36:33;16.50;99.90
16485;DHT22;8353;47.856;12.344;2022-11-15T13:39:06;16.60;99.90
16485;DHT22;8353;47.856;12.344;2022-11-15T13:41:47;16.60;99.90
16485;DHT22;8353;47.856;12.344;2022-11-15T13:44:20;16.50;99.90
16485;DHT22;8353;47.856;12.344;2022-11-15T13:47:03;16.40;99.90
16485;DHT22;8353;47.856;12.344;2022-11-15T13:49:34;16.50;99.90
16485;DHT22;8353;47.856;12.344;2022-11-15T13:52:09;16.50;99.90
16485;DHT22;8353;47.856;12.344;2022-11-15T13:54:44;16.40;99.90
16485;DHT22;8353;47.856;12.344;2022-11-15T13:57:19;16.30;99.90
16485;DHT22;8353;47.856;12.344;2022-11-15T13:59:53;16.30;99.90
16485;DHT22;8353;47.856;12.344;2022-11-15T14:02:28;16.20;99.90
16485;DHT22;8353;47.856;12.344;2022-11-15T14:05:14;16.20;99.90
16485;DHT22;8353;47.856;12.344;2022-11-15T14:07:53;16.20;99.90
16485;DHT22;8353;47.856;12.344;2022-11-15T14:10:29;16.20;99.90
16485;DHT22;8353;47.856;12.344;2022-11-15T14:13:00;16.20;99.90
16485;DHT22;8353;47.856;12.344;2022-11-15T14:15:33;16.10;99.90
16485;DHT22;8353;47.856;12.344;2022-11-15T14:18:06;16.10;99.90
16485;DHT22;8353;47.856;12.344;2022-11-15T14:20:38;16.10;99.90
16485;DHT22;8353;47.856;12.344;2022-11-15T14:23:19;16.20;99.90
16485;DHT22;8353;47.856;12.344;2022-11-15T14:25:55;16.20;99.90
16485;DHT22;8353;47.856;12.344;2022-11-15T14:59:41;15.00;99.90
16485;DHT22;8353;47.856;12.344;2022-11-15T15:02:27;14.90;99.90
16485;DHT22;8353;47.856;12.344;2022-11-15T15:04:58;14.80;99.90
16485;DHT22;8353;47.856;12.344;2022-11-15T15:07:31;14.70;99.90
16485;DHT22;8353;47.856;12.344;2022-11-15T15:10:02;14.60;99.90
16485;DHT22;8353;47.856;12.344;2022-11-15T15:12:33;14.60;99.90
16485;DHT22;8353;47.856;12.344;2022-11-15T15:15:09;14.50;99.90
16485;DHT22;8353;47.856;12.344;2022-11-15T15:17:42;14.40;99.90
16485;DHT22;8353;47.856;12.344;2022-11-15T15:20:12;14.40;99.90
16485;DHT22;8353;47.856;12.344;2022-11-15T15:22:44;14.20;99.90
16485;DHT22;8353;47.856;12.344;2022-11-15T15:25:21;14.20;99.90
16485;DHT22;8353;47.856;12.344;2022-11-15T15:27:51;14.10;99.90
16485;DHT22;8353;47.856;12.344;2022-11-15T15:30:26;14.10;99.90
16485;DHT22;8353;47.856;12.344;2022-11-15T15:32:57;13.90;99.90
16485;DHT22;8353;47.856;12.344;2022-11-15T15:35:30;13.80;99.90
16485;DHT22;8353;47.856;12.344;2022-11-15T15:41:50;13.70;99.90
16485;DHT22;8353;47.856;12.344;2022-11-15T15:44:41;13.60;99.90
16485;DHT22;8353;47.856;12.344;2022-11-15T15:47:16;13.50;99.90
16485;DHT22;8353;47.856;12.344;2022-11-15T15:49:48;13.40;99.90
16485;DHT22;8353;47.856;12.344;2022-11-15T15:52:22;13.30;99.90
16485;DHT22;8353;47.856;12.344;2022-11-15T15:54:56;13.20;99.90
16485;DHT22;8353;47.856;12.344;2022-11-15T15:57:29;13.00;99.90
16485;DHT22;8353;47.856;12.344;2022-11-15T16:00:00;12.80;99.90
16485;DHT22;8353;47.856;12.344;2022-11-15T16:02:32;12.70;99.90
16485;DHT22;8353;47.856;12.344;2022-11-15T16:05:04;12.80;99.90
16485;DHT22;8353;47.856;12.344;2022-11-15T16:07:35;12.70;99.90
16485;DHT22;8353;47.856;12.344;2022-11-15T16:10:17;12.60;99.90
16485;DHT22;8353;47.856;12.344;2022-11-15T16:12:49;12.60;99.90
16485;DHT22;8353;47.856;12.344;2022-11-15T16:15:24;12.60;99.90
16485;DHT22;8353;47.856;12.344;2022-11-15T16:18:00;12.40;99.90
16485;DHT22;8353;47.856;12.344;2022-11-15T16:20:34;12.30;99.90
16485;DHT22;8353;47.856;12.344;2022-11-15T16:23:08;12.20;99.90
16485;DHT22;8353;47.856;12.344;2022-11-15T16:25:44;12.10;99.90
16485;DHT22;8353;47.856;12.344;2022-11-15T16:28:20;12.10;99.90
16485;DHT22;8353;47.856;12.344;2022-11-15T16:31:00;12.10;99.90
16485;DHT22;8353;47.856;12.344;2022-11-15T16:33:33;12.00;99.90
16485;DHT22;8353;47.856;12.344;2022-11-15T16:36:04;12.00;99.90
16485;DHT22;8353;47.856;12.344;2022-11-15T16:38:34;11.90;99.90
16485;DHT22;8353;47.856;12.344;2022-11-15T16:41:04;11.90;99.90
16485;DHT22;8353;47.856;12.344;2022-11-15T16:43:35;11.90;99.90
16485;DHT22;8353;47.856;12.344;2022-11-15T16:46:11;11.80;99.90
16485;DHT22;8353;47.856;12.344;2022-11-15T16:48:43;11.80;99.90
16485;DHT22;8353;47.856;12.344;2022-11-15T16:51:14;11.80;99.90
16485;DHT22;8353;47.856;12.344;2022-11-15T16:53:46;11.70;99.90
16485;DHT22;8353;47.856;12.344;2022-11-15T16:56:25;11.70;99.90
16485;DHT22;8353;47.856;12.344;2022-11-15T16:58:56;11.70;99.90
16485;DHT22;8353;47.856;12.344;2022-11-15T17:01:28;11.60;99.90
16485;DHT22;8353;47.856;12.344;2022-11-15T17:04:00;11.60;99.90
16485;DHT22;8353;47.856;12.344;2022-11-15T17:06:42;11.60;99.90
16485;DHT22;8353;47.856;12.344;2022-11-15T17:09:13;11.60;99.90
16485;DHT22;8353;47.856;12.344;2022-11-15T17:11:44;11.60;99.90
16485;DHT22;8353;47.856;12.344;2022-11-15T17:14:15;11.50;99.90
16485;DHT22;8353;47.856;12.344;2022-11-15T17:16:46;11.40;99.90
16485;DHT22;8353;47.856;12.344;2022-11-15T17:19:19;11.40;99.90
16485;DHT22;8353;47.856;12.344;2022-11-15T17:21:49;11.40;99.90
16485;DHT22;8353;47.856;12.344;2022-11-15T17:24:21;11.20;99.90
16485;DHT22;8353;47.856;12.344;2022-11-15T17:26:51;11.10;99.90
16485;DHT22;8353;47.856;12.344;2022-11-15T17:29:22;11.10;99.90
16485;DHT22;8353;47.856;12.344;2022-11-15T17:31:52;11.10;99.90
16485;DHT22;8353;47.856;12.344;2022-11-15T17:34:24;11.10;99.90
16485;DHT22;8353;47.856;12.344;2022-11-15T17:36:54;11.00;99.90
16485;DHT22;8353;47.856;12.344;2022-11-15T17:39:25;10.90;99.90
16485;DHT22;8353;47.856;12.344;2022-11-15T17:41:56;11.00;99.90
16485;DHT22;8353;47.856;12.344;2022-11-15T17:44:27;11.00;99.90
16485;DHT22;8353;47.856;12.344;2022-11-15T17:46:57;11.00;99.90
16485;DHT22;8353;47.856;12.344;2022-11-15T17:49:29;10.90;99.90
16485;DHT22;8353;47.856;12.344;2022-11-15T17:51:59;10.90;99.90
16485;DHT22;8353;47.856;12.344;2022-11-15T17:54:30;10.70;99.90
16485;DHT22;8353;47.856;12.344;2022-11-15T17:57:00;10.70;99.90
16485;DHT22;8353;47.856;12.344;2022-11-15T17:59:30;10.60;99.90
16485;DHT22;8353;47.856;12.344;2022-11-15T18:02:00;10.70;99.90
16485;DHT22;8353;47.856;12.344;2022-11-15T18:04:32;10.70;99.90